createdAt,value
2018-09-15T00:00:57.160Z,2.77
2018-09-15T00:03:24.805Z,2.83
2018-09-15T00:05:51.933Z,2.93
2018-09-15T00:08:19.072Z,2.63
2018-09-15T00:10:46.552Z,3.20
2018-09-15T00:13:14.041Z,3.30
2018-09-15T00:15:41.153Z,2.97
2018-09-15T00:18:10.400Z,2.93
2018-09-15T00:20:37.528Z,3.50
2018-09-15T00:23:05.075Z,2.90
2018-09-15T00:25:32.159Z,2.73
2018-09-15T00:27:59.241Z,2.90
2018-09-15T00:30:27.029Z,2.70
2018-09-15T00:32:54.124Z,2.60
2018-09-15T00:35:21.243Z,2.50
2018-09-15T00:37:48.411Z,2.70
2018-09-15T00:40:15.585Z,2.20
2018-09-15T00:42:42.694Z,2.30
2018-09-15T00:45:09.841Z,2.07
2018-09-15T00:47:36.943Z,2.13
2018-09-15T00:50:04.077Z,2.50
2018-09-15T00:52:31.188Z,2.60
2018-09-15T00:54:58.304Z,1.90
2018-09-15T00:57:25.392Z,2.30
2018-09-15T00:59:52.488Z,2.10
2018-09-15T01:02:19.640Z,2.20
2018-09-15T01:04:46.763Z,2.13
2018-09-15T01:07:13.877Z,2.47
2018-09-15T01:09:41.013Z,2.40
2018-09-15T01:12:08.123Z,2.50
2018-09-15T01:14:35.251Z,1.97
2018-09-15T01:17:02.347Z,1.80
2018-09-15T01:19:29.460Z,2.50
2018-09-15T01:21:56.660Z,2.63
2018-09-15T01:24:23.832Z,2.37
2018-09-15T01:26:50.917Z,2.53
2018-09-15T01:29:18.028Z,2.30
2018-09-15T01:31:45.168Z,2.80
2018-09-15T01:34:12.268Z,2.40
2018-09-15T01:36:39.393Z,2.60
2018-09-15T01:39:07.479Z,2.53
2018-09-15T01:41:34.936Z,2.53
2018-09-15T01:44:02.116Z,2.50
2018-09-15T01:46:29.216Z,2.37
2018-09-15T01:48:56.309Z,2.63
2018-09-15T01:51:23.424Z,2.67
2018-09-15T01:53:50.540Z,2.47
2018-09-15T01:56:17.723Z,2.63
2018-09-15T01:58:44.812Z,2.20
2018-09-15T02:01:11.952Z,2.43
2018-09-15T02:03:39.065Z,2.57
2018-09-15T02:06:06.221Z,2.67
2018-09-15T02:08:33.347Z,2.20
2018-09-15T02:11:00.533Z,2.57
2018-09-15T02:13:27.640Z,2.80
2018-09-15T02:15:54.756Z,2.50
2018-09-15T02:18:21.852Z,2.70
2018-09-15T02:20:48.956Z,2.73
2018-09-15T02:23:16.244Z,2.70
2018-09-15T02:25:43.361Z,2.50
2018-09-15T02:28:12.696Z,2.90
2018-09-15T02:30:39.948Z,2.80
2018-09-15T02:33:07.027Z,2.90
2018-09-15T02:35:34.144Z,3.07
2018-09-15T02:38:01.232Z,2.83
2018-09-15T02:40:28.320Z,3.37
2018-09-15T02:42:55.530Z,3.30
2018-09-15T02:45:22.703Z,3.00
2018-09-15T02:47:49.798Z,2.83
2018-09-15T02:50:16.921Z,2.97
2018-09-15T02:52:44.076Z,3.27
2018-09-15T02:55:11.192Z,3.50
2018-09-15T02:57:38.300Z,3.03
2018-09-15T03:00:05.461Z,3.00
2018-09-15T03:02:32.587Z,3.23
2018-09-15T03:04:59.692Z,3.07
2018-09-15T03:07:26.804Z,3.23
2018-09-15T03:09:53.916Z,3.10
2018-09-15T03:12:21.032Z,3.27
2018-09-15T03:14:48.154Z,3.40
2018-09-15T03:17:15.253Z,3.60
2018-09-15T03:19:42.368Z,3.00
2018-09-15T03:22:09.601Z,3.10
2018-09-15T03:24:36.740Z,3.07
2018-09-15T03:27:03.841Z,3.50
2018-09-15T03:29:30.977Z,3.50
2018-09-15T03:31:58.104Z,3.33
2018-09-15T03:34:25.218Z,3.23
2018-09-15T03:36:52.468Z,3.70
2018-09-15T03:39:19.572Z,3.30
2018-09-15T03:41:46.743Z,3.20
2018-09-15T03:44:13.788Z,3.37
2018-09-15T03:46:40.881Z,3.33
2018-09-15T03:49:07.983Z,3.37
2018-09-15T03:51:35.074Z,4.30
2018-09-15T03:54:02.195Z,3.20
2018-09-15T03:56:29.296Z,3.40
2018-09-15T03:58:56.404Z,4.00
2018-09-15T04:01:23.508Z,3.87
2018-09-15T04:03:50.601Z,3.70
2018-09-15T04:06:17.726Z,3.70
2018-09-15T04:08:44.822Z,3.50
2018-09-15T04:11:11.920Z,4.13
2018-09-15T04:13:39.031Z,3.67
2018-09-15T04:16:06.115Z,4.00
2018-09-15T04:18:33.213Z,3.70
2018-09-15T04:21:00.319Z,3.80
2018-09-15T04:23:27.432Z,3.80
2018-09-15T04:25:54.531Z,3.73
2018-09-15T04:28:21.637Z,3.90
2018-09-15T04:30:49.243Z,3.77
2018-09-15T04:33:16.328Z,3.87
2018-09-15T04:35:43.431Z,4.20
2018-09-15T04:38:10.572Z,4.10
2018-09-15T04:40:37.695Z,3.97
2018-09-15T04:43:04.815Z,3.67
2018-09-15T04:45:31.908Z,4.33
2018-09-15T04:47:59.020Z,3.67
2018-09-15T04:50:26.120Z,4.47
2018-09-15T04:52:53.217Z,4.17
2018-09-15T04:55:20.360Z,3.90
2018-09-15T04:57:47.482Z,4.63
2018-09-15T05:00:14.619Z,4.37
2018-09-15T05:02:41.728Z,4.20
2018-09-15T05:05:08.844Z,4.10
2018-09-15T05:07:35.950Z,3.90
2018-09-15T05:10:03.088Z,4.20
2018-09-15T05:12:30.237Z,4.10
2018-09-15T05:14:57.328Z,4.57
2018-09-15T05:17:24.437Z,4.40
2018-09-15T05:19:51.549Z,4.90
2018-09-15T05:22:18.658Z,5.40
2018-09-15T05:24:45.760Z,4.60
2018-09-15T05:27:12.880Z,4.73
2018-09-15T05:29:39.984Z,5.23
2018-09-15T05:32:07.081Z,4.80
2018-09-15T05:34:34.507Z,5.10
2018-09-15T05:37:01.617Z,5.07
2018-09-15T05:39:28.792Z,5.20
2018-09-15T05:41:55.916Z,5.10
2018-09-15T05:44:23.012Z,5.10
2018-09-15T05:46:50.113Z,5.27
2018-09-15T05:49:17.224Z,5.10
2018-09-15T05:51:44.376Z,5.57
2018-09-15T05:54:11.469Z,5.13
2018-09-15T05:56:38.573Z,5.07
2018-09-15T05:59:05.827Z,5.13
2018-09-15T06:01:33.022Z,5.47
2018-09-15T06:04:00.109Z,5.23
2018-09-15T06:06:27.238Z,5.60
2018-09-15T06:08:54.368Z,5.77
2018-09-15T06:11:21.508Z,5.50
2018-09-15T06:13:48.775Z,6.03
2018-09-15T06:16:15.813Z,5.27
2018-09-15T06:18:42.982Z,5.97
2018-09-15T06:21:10.120Z,5.57
2018-09-15T06:23:37.260Z,5.07
2018-09-15T06:26:04.376Z,5.50
2018-09-15T06:28:31.610Z,5.53
2018-09-15T06:30:58.751Z,5.80
2018-09-15T06:33:25.925Z,5.87
2018-09-15T06:35:53.063Z,5.30
2018-09-15T06:38:20.181Z,5.57
2018-09-15T06:40:47.628Z,6.97
2018-09-15T06:43:14.783Z,5.93
2018-09-15T06:45:41.968Z,6.07
2018-09-15T06:48:09.031Z,6.30
2018-09-15T06:50:36.131Z,5.67
2018-09-15T06:53:03.256Z,6.37
2018-09-15T06:55:30.379Z,6.10
2018-09-15T06:57:57.496Z,6.43
2018-09-15T07:00:24.604Z,6.40
2018-09-15T07:02:51.710Z,6.13
2018-09-15T07:05:18.849Z,5.97
2018-09-15T07:07:45.953Z,6.53
2018-09-15T07:10:13.058Z,6.30
2018-09-15T07:12:40.168Z,6.20
2018-09-15T07:15:07.281Z,6.30
2018-09-15T07:17:34.404Z,6.37
2018-09-15T07:20:01.582Z,7.00
2018-09-15T07:22:28.652Z,7.37
2018-09-15T07:24:55.757Z,6.73
2018-09-15T07:27:22.876Z,6.30
2018-09-15T07:29:50.032Z,6.60
2018-09-15T07:32:17.157Z,6.53
2018-09-15T07:34:44.266Z,5.70
2018-09-15T07:37:11.384Z,6.57
2018-09-15T07:39:38.491Z,7.03
2018-09-15T07:42:05.648Z,6.23
2018-09-15T07:44:32.777Z,6.27
2018-09-15T07:46:59.904Z,5.77
2018-09-15T07:49:27.182Z,5.63
2018-09-15T07:51:54.326Z,6.30
2018-09-15T07:54:21.474Z,5.90
2018-09-15T07:56:48.623Z,6.13
2018-09-15T07:59:15.749Z,5.60
2018-09-15T08:01:42.881Z,5.97
2018-09-15T08:04:10.024Z,5.53
2018-09-15T08:06:37.172Z,5.97
2018-09-15T08:09:05.727Z,5.90
2018-09-15T08:11:32.867Z,5.50
2018-09-15T08:13:59.979Z,5.50
2018-09-15T08:16:27.101Z,5.40
2018-09-15T08:18:54.244Z,5.10
2018-09-15T08:21:21.350Z,5.20
2018-09-15T08:23:48.444Z,4.97
2018-09-15T08:26:15.617Z,4.93
2018-09-15T08:28:42.824Z,5.50
2018-09-15T08:31:09.934Z,4.40
2018-09-15T08:33:37.052Z,4.83
2018-09-15T08:36:04.185Z,4.33
2018-09-15T08:38:31.328Z,5.37
2018-09-15T08:40:58.444Z,4.63
2018-09-15T08:43:25.618Z,5.10
2018-09-15T08:45:53.628Z,5.17
2018-09-15T08:48:20.845Z,5.70
2018-09-15T08:50:47.943Z,5.40
2018-09-15T08:53:15.155Z,5.50
2018-09-15T08:55:42.284Z,5.00
2018-09-15T08:58:09.397Z,5.50
2018-09-15T09:00:36.522Z,5.47
2018-09-15T09:03:03.640Z,5.93
2018-09-15T09:05:30.769Z,5.30
2018-09-15T09:07:57.872Z,5.30
2018-09-15T09:10:25.027Z,4.80
2018-09-15T09:12:52.569Z,4.87
2018-09-15T09:15:20.029Z,5.07
2018-09-15T09:17:47.132Z,4.90
2018-09-15T09:20:14.241Z,4.23
2018-09-15T09:22:41.344Z,3.57
2018-09-15T09:25:08.453Z,3.27
2018-09-15T09:27:35.565Z,3.03
2018-09-15T09:30:02.703Z,2.93
2018-09-15T09:32:30.181Z,3.33
2018-09-15T09:34:57.267Z,3.17
2018-09-15T09:37:24.361Z,2.97
2018-09-15T09:39:51.481Z,3.07
2018-09-15T09:42:18.616Z,2.87
2018-09-15T09:44:45.732Z,3.23
2018-09-15T09:47:12.838Z,3.03
2018-09-15T09:49:39.958Z,3.70
2018-09-15T09:52:07.093Z,3.43
2018-09-15T09:54:34.187Z,2.70
2018-09-15T09:57:01.309Z,3.10
2018-09-15T09:59:28.433Z,3.57
2018-09-15T10:02:01.948Z,2.90
2018-09-15T10:04:29.697Z,3.53
2018-09-15T10:06:56.843Z,3.03
2018-09-15T10:09:23.941Z,2.63
2018-09-15T10:11:51.053Z,3.00
2018-09-15T10:14:18.172Z,3.07
2018-09-15T10:16:45.297Z,3.07
2018-09-15T10:19:12.432Z,3.00
2018-09-15T10:21:39.597Z,3.20
2018-09-15T10:24:06.677Z,2.83
2018-09-15T10:26:33.857Z,3.03
2018-09-15T10:29:00.972Z,3.07
2018-09-15T10:31:28.093Z,2.80
2018-09-15T10:33:55.212Z,2.20
2018-09-15T10:36:22.841Z,2.40
2018-09-15T10:38:49.957Z,2.70
2018-09-15T10:41:17.085Z,2.43
2018-09-15T10:43:44.185Z,2.70
2018-09-15T10:46:11.303Z,2.67
2018-09-15T10:48:38.420Z,2.70
2018-09-15T10:51:05.520Z,2.80
2018-09-15T10:53:32.628Z,2.50
2018-09-15T10:55:59.748Z,2.40
2018-09-15T10:58:26.857Z,2.50
2018-09-15T11:00:54.039Z,2.23
2018-09-15T11:03:22.212Z,2.57
2018-09-15T11:05:49.403Z,2.47
2018-09-15T11:08:16.464Z,2.20
2018-09-15T11:10:43.632Z,2.20
2018-09-15T11:13:10.791Z,2.50
2018-09-15T11:15:37.872Z,1.90
2018-09-15T11:18:05.081Z,2.40
2018-09-15T11:20:32.205Z,2.10
2018-09-15T11:22:59.315Z,2.70
2018-09-15T11:25:26.447Z,2.20
2018-09-15T11:27:53.540Z,2.30
2018-09-15T11:30:22.465Z,2.30
2018-09-15T11:32:49.556Z,2.20
2018-09-15T11:35:16.643Z,2.40
2018-09-15T11:37:43.794Z,2.97
2018-09-15T11:40:10.847Z,2.30
2018-09-15T11:42:37.988Z,2.67
2018-09-15T11:45:05.169Z,2.80
2018-09-15T11:47:32.281Z,2.70
2018-09-15T11:49:59.380Z,2.50
2018-09-15T11:52:26.852Z,2.90
2018-09-15T11:54:53.972Z,2.80
2018-09-15T11:57:21.083Z,3.23
2018-09-15T11:59:48.221Z,2.30
2018-09-15T12:02:15.423Z,2.33
2018-09-15T12:04:42.529Z,2.40
2018-09-15T12:07:09.627Z,2.20
2018-09-15T12:09:36.725Z,2.43
2018-09-15T12:12:03.844Z,2.60
2018-09-15T12:14:30.935Z,2.23
2018-09-15T12:16:58.088Z,3.27
2018-09-15T12:19:25.216Z,3.13
2018-09-15T12:21:52.411Z,2.83
2018-09-15T12:24:19.429Z,3.20
2018-09-15T12:26:46.537Z,3.10
2018-09-15T12:29:13.648Z,3.37
2018-09-15T12:31:40.764Z,3.03
2018-09-15T12:34:07.889Z,3.00
2018-09-15T12:36:35.009Z,3.30
2018-09-15T12:39:02.176Z,3.43
2018-09-15T12:41:29.297Z,3.80
2018-09-15T12:43:56.401Z,3.70
2018-09-15T12:46:23.540Z,3.73
2018-09-15T12:48:50.661Z,3.70
2018-09-15T12:51:17.788Z,4.30
2018-09-15T12:53:44.896Z,4.07
2018-09-15T12:56:12.009Z,3.57
2018-09-15T12:58:39.128Z,3.43
2018-09-15T13:01:06.260Z,3.87
2018-09-15T13:03:33.416Z,4.00
2018-09-15T13:06:00.549Z,4.13
2018-09-15T13:08:27.667Z,3.60
2018-09-15T13:10:54.780Z,3.70
2018-09-15T13:13:21.888Z,3.50
2018-09-15T13:15:49.531Z,3.50
2018-09-15T13:18:16.639Z,3.13
2018-09-15T13:20:43.748Z,3.17
2018-09-15T13:23:10.839Z,3.37
2018-09-15T13:25:37.972Z,3.57
2018-09-15T13:28:05.201Z,3.33
2018-09-15T13:30:33.328Z,3.17
2018-09-15T13:33:00.468Z,3.33
2018-09-15T13:35:27.613Z,3.30
2018-09-15T13:37:54.764Z,3.50
2018-09-15T13:40:21.941Z,3.43
2018-09-15T13:42:49.095Z,3.70
2018-09-15T13:45:16.206Z,3.50
2018-09-15T13:47:43.348Z,3.60
2018-09-15T13:50:10.480Z,3.30
2018-09-15T13:52:37.592Z,3.10
2018-09-15T13:55:04.876Z,3.60
2018-09-15T13:57:31.992Z,4.67
2018-09-15T13:59:59.096Z,4.37
2018-09-15T14:02:26.296Z,4.70
2018-09-15T14:04:53.489Z,4.43
2018-09-15T14:07:20.534Z,4.37
2018-09-15T14:09:47.648Z,3.87
2018-09-15T14:12:14.741Z,3.80
2018-09-15T14:14:41.856Z,4.10
2018-09-15T14:17:09.040Z,3.80
2018-09-15T14:19:36.153Z,3.60
2018-09-15T14:22:03.306Z,3.87
2018-09-15T14:24:30.392Z,3.57
2018-09-15T14:26:57.500Z,3.93
2018-09-15T14:29:24.612Z,4.43
2018-09-15T14:31:51.748Z,4.40
2018-09-15T14:34:18.867Z,4.73
2018-09-15T14:36:46.008Z,5.30
2018-09-15T14:39:13.130Z,4.97
2018-09-15T14:41:40.524Z,5.40
2018-09-15T14:44:07.855Z,4.90
2018-09-15T14:46:34.948Z,4.70
2018-09-15T14:49:02.092Z,5.17
2018-09-15T14:51:29.208Z,5.40
2018-09-15T14:53:56.312Z,5.20
2018-09-15T14:56:23.496Z,4.63
2018-09-15T14:58:50.560Z,4.40
2018-09-15T15:01:17.688Z,4.30
2018-09-15T15:03:44.846Z,4.77
2018-09-15T15:06:12.059Z,4.20
2018-09-15T15:08:39.205Z,4.53
2018-09-15T15:11:06.744Z,4.43
2018-09-15T15:13:33.877Z,4.50
2018-09-15T15:16:01.002Z,3.90
2018-09-15T15:18:28.232Z,4.60
2018-09-15T15:20:55.335Z,4.60
2018-09-15T15:23:22.464Z,5.03
2018-09-15T15:25:49.684Z,4.67
2018-09-15T15:28:16.756Z,5.20
2018-09-15T15:30:43.876Z,5.47
2018-09-15T15:33:10.977Z,5.87
2018-09-15T15:35:38.118Z,6.13
2018-09-15T15:38:05.251Z,5.60
2018-09-15T15:40:32.385Z,5.23
2018-09-15T15:42:59.515Z,6.17
2018-09-15T15:45:26.632Z,6.00
2018-09-15T15:47:53.792Z,6.93
2018-09-15T15:50:20.985Z,6.03
2018-09-15T15:52:48.128Z,6.40
2018-09-15T15:55:15.220Z,6.10
2018-09-15T15:57:42.353Z,6.10
2018-09-15T16:00:09.477Z,6.50
2018-09-15T16:02:36.580Z,6.00
2018-09-15T16:05:03.753Z,6.27
2018-09-15T16:07:30.909Z,6.23
2018-09-15T16:09:58.004Z,5.77
2018-09-15T16:12:25.913Z,6.17
2018-09-15T16:14:53.004Z,6.23
2018-09-15T16:17:20.172Z,5.70
2018-09-15T16:19:47.265Z,6.30
2018-09-15T16:22:14.352Z,6.80
2018-09-15T16:24:41.462Z,5.70
2018-09-15T16:27:08.592Z,5.93
2018-09-15T16:29:35.695Z,6.70
2018-09-15T16:32:02.842Z,6.67
2018-09-15T16:34:29.940Z,6.80
2018-09-15T16:36:57.076Z,6.70
2018-09-15T16:39:24.172Z,5.80
2018-09-15T16:41:51.255Z,6.63
2018-09-15T16:44:18.365Z,6.43
2018-09-15T16:46:45.465Z,6.30
2018-09-15T16:49:12.565Z,6.97
2018-09-15T16:51:39.670Z,6.43
2018-09-15T16:54:07.020Z,6.10
2018-09-15T16:56:34.700Z,5.90
2018-09-15T16:59:01.816Z,5.60
2018-09-15T17:01:28.928Z,6.17
2018-09-15T17:03:56.028Z,5.60
2018-09-15T17:06:23.156Z,6.10
2018-09-15T17:08:50.305Z,5.73
2018-09-15T17:11:17.445Z,6.17
2018-09-15T17:13:44.576Z,6.27
2018-09-15T17:16:11.692Z,6.13
2018-09-15T17:18:38.864Z,6.23
2018-09-15T17:21:06.024Z,5.90
2018-09-15T17:23:33.172Z,6.07
2018-09-15T17:26:00.290Z,6.60
2018-09-15T17:28:27.397Z,6.30
2018-09-15T17:30:54.554Z,6.47
2018-09-15T17:33:21.696Z,6.33
2018-09-15T17:35:48.838Z,6.10
2018-09-15T17:38:15.969Z,6.33
2018-09-15T17:40:43.975Z,6.63
2018-09-15T17:43:11.124Z,6.40
2018-09-15T17:45:38.328Z,5.83
2018-09-15T17:48:05.436Z,5.90
2018-09-15T17:50:32.548Z,6.20
2018-09-15T17:52:59.639Z,5.93
2018-09-15T17:55:26.732Z,6.07
2018-09-15T17:57:53.822Z,5.97
2018-09-15T18:00:20.936Z,6.40
2018-09-15T18:02:48.069Z,6.37
2018-09-15T18:05:15.329Z,6.10
2018-09-15T18:07:42.468Z,6.10
2018-09-15T18:10:09.596Z,5.70
2018-09-15T18:12:36.693Z,5.07
2018-09-15T18:15:04.171Z,6.10
2018-09-15T18:17:31.245Z,6.10
2018-09-15T18:19:58.360Z,5.80
2018-09-15T18:22:25.496Z,6.73
2018-09-15T18:24:52.633Z,6.60
2018-09-15T18:27:19.815Z,7.33
2018-09-15T18:29:46.924Z,8.30
2018-09-15T18:32:14.512Z,9.73
2018-09-15T18:34:41.612Z,9.80
2018-09-15T18:37:08.725Z,10.50
2018-09-15T18:39:35.825Z,9.50
2018-09-15T18:42:02.935Z,9.43
2018-09-15T18:44:30.064Z,9.40
2018-09-15T18:46:57.208Z,9.27
2018-09-15T18:49:24.325Z,8.10
2018-09-15T18:51:51.472Z,7.80
2018-09-15T18:54:18.592Z,8.03
2018-09-15T18:56:45.696Z,8.50
2018-09-15T18:59:12.832Z,8.03
2018-09-15T19:01:39.961Z,7.70
2018-09-15T19:04:07.073Z,7.60
2018-09-15T19:06:34.174Z,8.10
2018-09-15T19:09:01.257Z,8.13
2018-09-15T19:11:28.352Z,8.47
2018-09-15T19:13:55.443Z,8.00
2018-09-15T19:16:22.536Z,9.13
2018-09-15T19:18:49.619Z,8.70
2018-09-15T19:21:16.801Z,9.20
2018-09-15T19:23:43.842Z,8.93
2018-09-15T19:26:11.060Z,9.07
2018-09-15T19:28:38.153Z,10.57
2018-09-15T19:31:05.287Z,9.40
2018-09-15T19:33:32.396Z,9.53
2018-09-15T19:35:59.500Z,9.87
2018-09-15T19:38:26.591Z,9.83
2018-09-15T19:40:53.693Z,10.47
2018-09-15T19:43:20.793Z,9.53
2018-09-15T19:45:48.091Z,9.87
2018-09-15T19:48:15.168Z,9.83
2018-09-15T19:50:42.300Z,10.17
2018-09-15T19:53:09.477Z,10.93
2018-09-15T19:55:36.588Z,11.03
2018-09-15T19:58:04.089Z,11.40
2018-09-15T20:00:31.214Z,11.63
2018-09-15T20:02:58.347Z,11.20
2018-09-15T20:05:25.464Z,11.97
2018-09-15T20:07:52.588Z,11.67
2018-09-15T20:10:19.699Z,11.67
2018-09-15T20:12:46.895Z,12.03
2018-09-15T20:15:20.141Z,12.87
2018-09-15T20:17:46.381Z,11.40
2018-09-15T20:20:12.637Z,12.50
2018-09-15T20:22:39.785Z,13.67
2018-09-15T20:25:06.912Z,13.00
2018-09-15T20:27:34.045Z,14.17
2018-09-15T20:30:01.209Z,13.10
2018-09-15T20:32:28.397Z,13.27
2018-09-15T20:34:55.472Z,13.00
2018-09-15T20:37:22.588Z,12.30
2018-09-15T20:39:49.692Z,13.43
2018-09-15T20:42:16.792Z,13.00
2018-09-15T20:44:43.903Z,12.97
2018-09-15T20:47:11.039Z,16.17
2018-09-15T20:49:38.161Z,13.93
2018-09-15T20:52:05.308Z,13.90
2018-09-15T20:54:32.412Z,12.40
2018-09-15T20:56:59.493Z,12.67
2018-09-15T20:59:26.620Z,12.33
2018-09-15T21:01:53.736Z,16.07
2018-09-15T21:04:20.888Z,13.70
2018-09-15T21:06:48.000Z,14.90
2018-09-15T21:09:15.132Z,14.70
2018-09-15T21:11:42.248Z,14.10
2018-09-15T21:14:09.395Z,14.37
2018-09-15T21:16:36.500Z,14.17
2018-09-15T21:19:03.652Z,15.07
2018-09-15T21:21:30.767Z,16.27
2018-09-15T21:23:57.843Z,15.37
2018-09-15T21:26:25.025Z,15.60
2018-09-15T21:28:52.105Z,14.77
2018-09-15T21:31:19.272Z,14.43
2018-09-15T21:33:46.409Z,15.07
2018-09-15T21:36:13.524Z,15.50
2018-09-15T21:38:40.699Z,14.77
2018-09-15T21:41:07.784Z,13.33
2018-09-15T21:43:35.028Z,14.30
2018-09-15T21:46:02.183Z,15.63
2018-09-15T21:48:29.264Z,14.23
2018-09-15T21:50:56.376Z,14.63
2018-09-15T21:53:23.461Z,15.10
2018-09-15T21:55:50.560Z,14.90
2018-09-15T21:58:17.670Z,13.87
2018-09-15T22:00:44.825Z,15.30
2018-09-15T22:03:11.937Z,14.90
2018-09-15T22:05:39.072Z,15.47
2018-09-15T22:08:06.205Z,15.13
2018-09-15T22:10:33.339Z,15.40
2018-09-15T22:13:00.448Z,17.17
2018-09-15T22:15:27.782Z,16.47
2018-09-15T22:17:57.046Z,16.57
2018-09-15T22:20:24.184Z,16.47
2018-09-15T22:22:51.312Z,17.60
2018-09-15T22:25:18.792Z,17.33
2018-09-15T22:27:46.062Z,16.93
2018-09-15T22:30:16.070Z,17.60
2018-09-15T22:32:43.395Z,18.33
2018-09-15T22:35:10.500Z,16.50
2018-09-15T22:37:37.696Z,16.27
2018-09-15T22:40:04.828Z,17.13
2018-09-15T22:42:31.949Z,18.13
2018-09-15T22:44:59.040Z,17.50
2018-09-15T22:47:26.749Z,18.17
2018-09-15T22:49:53.876Z,18.60
2018-09-15T22:52:20.996Z,18.47
2018-09-15T22:54:48.113Z,17.03
2018-09-15T22:57:15.212Z,17.70
2018-09-15T22:59:42.333Z,17.63
2018-09-15T23:02:09.504Z,17.57
2018-09-15T23:04:36.625Z,18.60
2018-09-15T23:07:03.760Z,18.13
2018-09-15T23:09:30.870Z,17.47
2018-09-15T23:11:57.960Z,18.17
2018-09-15T23:14:25.040Z,18.03
2018-09-15T23:16:52.136Z,17.43
2018-09-15T23:19:19.248Z,17.90
2018-09-15T23:21:46.363Z,16.30
2018-09-15T23:24:13.460Z,17.37
2018-09-15T23:26:40.554Z,17.77
2018-09-15T23:29:07.656Z,17.97
2018-09-15T23:31:34.755Z,16.40
2018-09-15T23:34:01.855Z,17.17
2018-09-15T23:36:28.959Z,17.27
2018-09-15T23:38:56.076Z,17.03
2018-09-15T23:41:23.188Z,17.80
2018-09-15T23:43:50.309Z,17.60
2018-09-15T23:46:17.395Z,17.77
2018-09-15T23:48:44.518Z,17.37
2018-09-15T23:51:11.641Z,17.90
2018-09-15T23:53:38.767Z,17.10
2018-09-15T23:56:05.885Z,16.57
2018-09-15T23:58:33.073Z,17.33
